sensor_id;sensor_type;location;lat;lon;timestamp;temperature;humidity
37002;DHT22;22913;51.910;8.374;2023-03-04T00:02:05;5.50;99.90
37002;DHT22;22913;51.910;8.374;2023-03-04T00:04:51;5.50;99.90
37002;DHT22;22913;51.910;8.374;2023-03-04T00:07:36;5.40;99.90
37002;DHT22;22913;51.910;8.374;2023-03-04T00:10:22;5.50;99.90
37002;DHT22;22913;51.910;8.374;2023-03-04T00:13:09;5.50;99.90
37002;DHT22;22913;51.910;8.374;2023-03-04T00:15:54;5.50;99.90
37002;DHT22;22913;51.910;8.374;2023-03-04T00:18:41;5.50;99.90
37002;DHT22;22913;51.910;8.374;2023-03-04T00:21:27;5.50;99.90
37002;DHT22;22913;51.910;8.374;2023-03-04T00:24:12;5.50;99.90
37002;DHT22;22913;51.910;8.374;2023-03-04T00:26:58;5.50;99.90
37002;DHT22;22913;51.910;8.374;2023-03-04T00:29:43;5.50;99.90
37002;DHT22;22913;51.910;8.374;2023-03-04T00:32:29;5.60;99.90
37002;DHT22;22913;51.910;8.374;2023-03-04T00:35:16;5.70;99.90
37002;DHT22;22913;51.910;8.374;2023-03-04T00:38:02;5.70;99.90
37002;DHT22;22913;51.910;8.374;2023-03-04T00:40:47;5.70;99.90
37002;DHT22;22913;51.910;8.374;2023-03-04T00:43:33;5.70;99.90
37002;DHT22;22913;51.910;8.374;2023-03-04T00:46:19;5.60;99.90
37002;DHT22;22913;51.910;8.374;2023-03-04T00:49:05;5.70;99.90
37002;DHT22;22913;51.910;8.374;2023-03-04T00:51:52;5.60;99.90
37002;DHT22;22913;51.910;8.374;2023-03-04T00:54:37;5.70;99.90
37002;DHT22;22913;51.910;8.374;2023-03-04T00:57:23;5.70;99.90
37002;DHT22;22913;51.910;8.374;2023-03-04T01:00:10;5.70;99.90
37002;DHT22;22913;51.910;8.374;2023-03-04T01:02:56;5.70;99.90
37002;DHT22;22913;51.910;8.374;2023-03-04T01:05:41;5.70;99.90
37002;DHT22;22913;51.910;8.374;2023-03-04T01:08:29;5.80;99.90
37002;DHT22;22913;51.910;8.374;2023-03-04T01:11:14;5.80;99.90
37002;DHT22;22913;51.910;8.374;2023-03-04T01:14:00;5.80;99.90
37002;DHT22;22913;51.910;8.374;2023-03-04T01:16:47;5.80;99.90
37002;DHT22;22913;51.910;8.374;2023-03-04T01:19:33;5.80;99.90
37002;DHT22;22913;51.910;8.374;2023-03-04T01:22:18;5.70;99.90
37002;DHT22;22913;51.910;8.374;2023-03-04T01:25:07;5.80;99.90
37002;DHT22;22913;51.910;8.374;2023-03-04T01:27:53;5.70;99.90
37002;DHT22;22913;51.910;8.374;2023-03-04T01:30:38;5.60;99.90
37002;DHT22;22913;51.910;8.374;2023-03-04T01:33:24;5.70;99.90
37002;DHT22;22913;51.910;8.374;2023-03-04T01:36:09;5.70;99.90
37002;DHT22;22913;51.910;8.374;2023-03-04T01:38:55;5.70;99.90
37002;DHT22;22913;51.910;8.374;2023-03-04T01:41:42;5.80;99.90
37002;DHT22;22913;51.910;8.374;2023-03-04T01:44:28;5.80;99.90
37002;DHT22;22913;51.910;8.374;2023-03-04T01:47:14;5.80;99.90
37002;DHT22;22913;51.910;8.374;2023-03-04T01:50:02;5.80;99.90
37002;DHT22;22913;51.910;8.374;2023-03-04T01:52:48;5.80;99.90
37002;DHT22;22913;51.910;8.374;2023-03-04T01:55:34;5.70;99.90
37002;DHT22;22913;51.910;8.374;2023-03-04T01:58:23;5.70;99.90
37002;DHT22;22913;51.910;8.374;2023-03-04T02:01:10;5.70;99.90
37002;DHT22;22913;51.910;8.374;2023-03-04T02:03:55;5.70;99.90
37002;DHT22;22913;51.910;8.374;2023-03-04T02:06:41;5.70;99.90
37002;DHT22;22913;51.910;8.374;2023-03-04T02:09:28;5.80;99.90
37002;DHT22;22913;51.910;8.374;2023-03-04T02:12:14;5.80;99.90
37002;DHT22;22913;51.910;8.374;2023-03-04T02:15:03;5.80;99.90
37002;DHT22;22913;51.910;8.374;2023-03-04T02:17:49;5.70;99.90
37002;DHT22;22913;51.910;8.374;2023-03-04T02:20:40;5.80;99.90
37002;DHT22;22913;51.910;8.374;2023-03-04T02:23:33;5.70;99.90
37002;DHT22;22913;51.910;8.374;2023-03-04T02:26:22;5.80;99.90
37002;DHT22;22913;51.910;8.374;2023-03-04T02:29:10;5.70;99.90
37002;DHT22;22913;51.910;8.374;2023-03-04T02:31:56;5.70;99.90
37002;DHT22;22913;51.910;8.374;2023-03-04T02:34:46;5.70;99.90
37002;DHT22;22913;51.910;8.374;2023-03-04T02:37:31;5.80;99.90
37002;DHT22;22913;51.910;8.374;2023-03-04T02:40:22;5.80;99.90
37002;DHT22;22913;51.910;8.374;2023-03-04T02:43:11;5.80;99.90
37002;DHT22;22913;51.910;8.374;2023-03-04T02:45:56;5.70;99.90
37002;DHT22;22913;51.910;8.374;2023-03-04T02:48:42;5.70;99.90
37002;DHT22;22913;51.910;8.374;2023-03-04T02:51:28;5.70;99.90
37002;DHT22;22913;51.910;8.374;2023-03-04T02:54:14;5.70;99.90
37002;DHT22;22913;51.910;8.374;2023-03-04T02:57:02;5.70;99.90
37002;DHT22;22913;51.910;8.374;2023-03-04T02:59:49;5.70;99.90
37002;DHT22;22913;51.910;8.374;2023-03-04T03:02:35;5.70;99.90
37002;DHT22;22913;51.910;8.374;2023-03-04T03:05:21;5.70;99.90
37002;DHT22;22913;51.910;8.374;2023-03-04T03:08:07;5.70;99.90
37002;DHT22;22913;51.910;8.374;2023-03-04T03:10:53;5.70;99.90
37002;DHT22;22913;51.910;8.374;2023-03-04T03:13:39;5.70;99.90
37002;DHT22;22913;51.910;8.374;2023-03-04T03:16:26;5.70;99.90
37002;DHT22;22913;51.910;8.374;2023-03-04T03:19:11;5.70;99.90
37002;DHT22;22913;51.910;8.374;2023-03-04T03:21:57;5.70;99.90
37002;DHT22;22913;51.910;8.374;2023-03-04T03:24:42;5.70;99.90
37002;DHT22;22913;51.910;8.374;2023-03-04T03:27:29;5.70;99.90
37002;DHT22;22913;51.910;8.374;2023-03-04T03:30:16;5.60;99.90
37002;DHT22;22913;51.910;8.374;2023-03-04T03:33:03;5.60;99.90
37002;DHT22;22913;51.910;8.374;2023-03-04T03:35:48;5.60;99.90
37002;DHT22;22913;51.910;8.374;2023-03-04T03:38:35;5.60;99.90
37002;DHT22;22913;51.910;8.374;2023-03-04T03:41:21;5.70;99.90
37002;DHT22;22913;51.910;8.374;2023-03-04T03:44:07;5.60;99.90
37002;DHT22;22913;51.910;8.374;2023-03-04T03:46:52;5.60;99.90
37002;DHT22;22913;51.910;8.374;2023-03-04T03:49:39;5.50;99.90
37002;DHT22;22913;51.910;8.374;2023-03-04T03:52:25;5.60;99.90
37002;DHT22;22913;51.910;8.374;2023-03-04T03:55:11;5.60;99.90
37002;DHT22;22913;51.910;8.374;2023-03-04T03:57:57;5.60;99.90
37002;DHT22;22913;51.910;8.374;2023-03-04T04:00:43;5.50;99.90
37002;DHT22;22913;51.910;8.374;2023-03-04T04:03:29;5.50;99.90
37002;DHT22;22913;51.910;8.374;2023-03-04T04:06:16;5.40;99.90
37002;DHT22;22913;51.910;8.374;2023-03-04T04:09:01;5.50;99.90
37002;DHT22;22913;51.910;8.374;2023-03-04T04:11:47;5.40;99.90
37002;DHT22;22913;51.910;8.374;2023-03-04T04:14:33;5.40;99.90
37002;DHT22;22913;51.910;8.374;2023-03-04T04:17:19;5.40;99.90
37002;DHT22;22913;51.910;8.374;2023-03-04T04:20:06;5.40;99.90
37002;DHT22;22913;51.910;8.374;2023-03-04T04:22:53;5.40;99.90
37002;DHT22;22913;51.910;8.374;2023-03-04T04:25:39;5.40;99.90
37002;DHT22;22913;51.910;8.374;2023-03-04T04:28:24;5.40;99.90
37002;DHT22;22913;51.910;8.374;2023-03-04T04:31:10;5.40;99.90
37002;DHT22;22913;51.910;8.374;2023-03-04T04:33:56;5.50;99.90
37002;DHT22;22913;51.910;8.374;2023-03-04T04:36:42;5.50;99.90
37002;DHT22;22913;51.910;8.374;2023-03-04T04:39:29;5.50;99.90
37002;DHT22;22913;51.910;8.374;2023-03-04T04:42:14;5.50;99.90
37002;DHT22;22913;51.910;8.374;2023-03-04T04:45:00;5.50;99.90
37002;DHT22;22913;51.910;8.374;2023-03-04T04:47:45;5.50;99.90
37002;DHT22;22913;51.910;8.374;2023-03-04T04:50:31;5.50;99.90
37002;DHT22;22913;51.910;8.374;2023-03-04T04:53:16;5.60;99.90
37002;DHT22;22913;51.910;8.374;2023-03-04T04:56:10;5.50;99.90
37002;DHT22;22913;51.910;8.374;2023-03-04T04:58:57;5.60;99.90
37002;DHT22;22913;51.910;8.374;2023-03-04T05:01:43;5.50;99.90
37002;DHT22;22913;51.910;8.374;2023-03-04T05:04:28;5.50;99.90
37002;DHT22;22913;51.910;8.374;2023-03-04T05:07:14;5.50;99.90
37002;DHT22;22913;51.910;8.374;2023-03-04T05:09:59;5.50;99.90
37002;DHT22;22913;51.910;8.374;2023-03-04T05:12:46;5.50;99.90
37002;DHT22;22913;51.910;8.374;2023-03-04T05:15:32;5.50;99.90
37002;DHT22;22913;51.910;8.374;2023-03-04T05:18:19;5.50;99.90
37002;DHT22;22913;51.910;8.374;2023-03-04T05:21:05;5.40;99.90
37002;DHT22;22913;51.910;8.374;2023-03-04T05:23:51;5.30;99.90
37002;DHT22;22913;51.910;8.374;2023-03-04T05:26:36;5.40;99.90
37002;DHT22;22913;51.910;8.374;2023-03-04T05:29:24;5.40;99.90
37002;DHT22;22913;51.910;8.374;2023-03-04T05:32:09;5.40;99.90
37002;DHT22;22913;51.910;8.374;2023-03-04T05:34:55;5.40;99.90
37002;DHT22;22913;51.910;8.374;2023-03-04T05:37:41;5.40;99.90
37002;DHT22;22913;51.910;8.374;2023-03-04T05:40:27;5.40;99.90
37002;DHT22;22913;51.910;8.374;2023-03-04T05:43:13;5.40;99.90
37002;DHT22;22913;51.910;8.374;2023-03-04T05:46:00;5.30;99.90
37002;DHT22;22913;51.910;8.374;2023-03-04T05:48:46;5.30;99.90
37002;DHT22;22913;51.910;8.374;2023-03-04T05:51:31;5.30;99.90
37002;DHT22;22913;51.910;8.374;2023-03-04T05:54:17;5.40;99.90
37002;DHT22;22913;51.910;8.374;2023-03-04T05:57:03;5.30;99.90
37002;DHT22;22913;51.910;8.374;2023-03-04T05:59:48;5.30;99.90
37002;DHT22;22913;51.910;8.374;2023-03-04T06:02:36;5.40;99.90
37002;DHT22;22913;51.910;8.374;2023-03-04T06:05:22;5.30;99.90
37002;DHT22;22913;51.910;8.374;2023-03-04T06:08:07;5.30;99.90
37002;DHT22;22913;51.910;8.374;2023-03-04T06:10:55;5.30;99.90
37002;DHT22;22913;51.910;8.374;2023-03-04T06:13:40;5.30;99.90
37002;DHT22;22913;51.910;8.374;2023-03-04T06:16:26;5.30;99.90
37002;DHT22;22913;51.910;8.374;2023-03-04T06:19:14;5.30;99.90
37002;DHT22;22913;51.910;8.374;2023-03-04T06:21:59;5.40;99.90
37002;DHT22;22913;51.910;8.374;2023-03-04T06:24:45;5.30;99.90
37002;DHT22;22913;51.910;8.374;2023-03-04T06:27:30;5.40;99.90
37002;DHT22;22913;51.910;8.374;2023-03-04T06:30:17;5.40;99.90
37002;DHT22;22913;51.910;8.374;2023-03-04T06:33:02;5.30;99.90
37002;DHT22;22913;51.910;8.374;2023-03-04T06:35:53;5.30;99.90
37002;DHT22;22913;51.910;8.374;2023-03-04T06:38:39;5.20;99.90
37002;DHT22;22913;51.910;8.374;2023-03-04T06:41:25;5.20;99.90
37002;DHT22;22913;51.910;8.374;2023-03-04T06:44:10;5.20;99.90
37002;DHT22;22913;51.910;8.374;2023-03-04T06:46:56;5.20;99.90
37002;DHT22;22913;51.910;8.374;2023-03-04T06:49:42;5.20;99.90
37002;DHT22;22913;51.910;8.374;2023-03-04T06:52:29;5.20;99.90
37002;DHT22;22913;51.910;8.374;2023-03-04T06:55:14;5.20;99.90
37002;DHT22;22913;51.910;8.374;2023-03-04T06:58:00;5.20;99.90
37002;DHT22;22913;51.910;8.374;2023-03-04T07:00:46;5.30;99.90
37002;DHT22;22913;51.910;8.374;2023-03-04T07:03:31;5.20;99.90
37002;DHT22;22913;51.910;8.374;2023-03-04T07:06:18;5.30;99.90
37002;DHT22;22913;51.910;8.374;2023-03-04T07:09:06;5.20;99.90
37002;DHT22;22913;51.910;8.374;2023-03-04T07:11:51;5.30;99.90
37002;DHT22;22913;51.910;8.374;2023-03-04T07:14:37;5.30;99.90
37002;DHT22;22913;51.910;8.374;2023-03-04T07:17:23;5.30;99.90
37002;DHT22;22913;51.910;8.374;2023-03-04T07:20:09;5.40;99.90
37002;DHT22;22913;51.910;8.374;2023-03-04T07:22:55;5.30;99.90
37002;DHT22;22913;51.910;8.374;2023-03-04T07:25:42;5.30;99.90
37002;DHT22;22913;51.910;8.374;2023-03-04T07:28:28;5.30;99.90
37002;DHT22;22913;51.910;8.374;2023-03-04T07:31:20;5.40;99.90
37002;DHT22;22913;51.910;8.374;2023-03-04T07:34:10;5.30;99.90
37002;DHT22;22913;51.910;8.374;2023-03-04T07:36:56;5.30;99.90
37002;DHT22;22913;51.910;8.374;2023-03-04T07:39:41;5.40;99.90
37002;DHT22;22913;51.910;8.374;2023-03-04T07:42:28;5.40;99.90
37002;DHT22;22913;51.910;8.374;2023-03-04T07:45:14;5.40;99.90
37002;DHT22;22913;51.910;8.374;2023-03-04T07:47:59;5.50;99.90
37002;DHT22;22913;51.910;8.374;2023-03-04T07:50:45;5.50;99.90
37002;DHT22;22913;51.910;8.374;2023-03-04T07:53:31;5.50;99.90
37002;DHT22;22913;51.910;8.374;2023-03-04T07:56:19;5.50;99.90
37002;DHT22;22913;51.910;8.374;2023-03-04T07:59:07;5.40;99.90
37002;DHT22;22913;51.910;8.374;2023-03-04T08:01:52;5.40;99.90
37002;DHT22;22913;51.910;8.374;2023-03-04T08:04:38;5.40;99.90
37002;DHT22;22913;51.910;8.374;2023-03-04T08:07:24;5.50;99.90
37002;DHT22;22913;51.910;8.374;2023-03-04T08:10:10;5.50;99.90
37002;DHT22;22913;51.910;8.374;2023-03-04T08:12:55;5.50;99.90
37002;DHT22;22913;51.910;8.374;2023-03-04T08:15:43;5.50;99.90
37002;DHT22;22913;51.910;8.374;2023-03-04T08:18:28;5.50;99.90
37002;DHT22;22913;51.910;8.374;2023-03-04T08:21:16;5.50;99.90
37002;DHT22;22913;51.910;8.374;2023-03-04T08:24:03;5.40;99.90
37002;DHT22;22913;51.910;8.374;2023-03-04T08:26:51;5.50;99.90
37002;DHT22;22913;51.910;8.374;2023-03-04T08:29:37;5.50;99.90
37002;DHT22;22913;51.910;8.374;2023-03-04T08:32:24;5.40;99.90
37002;DHT22;22913;51.910;8.374;2023-03-04T08:35:09;5.50;99.90
37002;DHT22;22913;51.910;8.374;2023-03-04T08:37:55;5.50;99.90
37002;DHT22;22913;51.910;8.374;2023-03-04T08:40:41;5.50;99.90
37002;DHT22;22913;51.910;8.374;2023-03-04T08:43:26;5.50;99.90
37002;DHT22;22913;51.910;8.374;2023-03-04T08:46:13;5.40;99.90
37002;DHT22;22913;51.910;8.374;2023-03-04T08:49:00;5.30;99.90
37002;DHT22;22913;51.910;8.374;2023-03-04T08:51:45;5.30;99.90
37002;DHT22;22913;51.910;8.374;2023-03-04T08:54:31;5.40;99.90
37002;DHT22;22913;51.910;8.374;2023-03-04T08:57:17;5.40;99.90
37002;DHT22;22913;51.910;8.374;2023-03-04T09:00:03;5.50;99.90
37002;DHT22;22913;51.910;8.374;2023-03-04T09:02:49;5.50;99.90
37002;DHT22;22913;51.910;8.374;2023-03-04T09:05:36;5.60;99.90
37002;DHT22;22913;51.910;8.374;2023-03-04T09:08:22;5.60;99.90
37002;DHT22;22913;51.910;8.374;2023-03-04T09:11:08;5.60;99.90
37002;DHT22;22913;51.910;8.374;2023-03-04T09:13:54;5.60;99.90
37002;DHT22;22913;51.910;8.374;2023-03-04T09:16:39;5.60;99.90
37002;DHT22;22913;51.910;8.374;2023-03-04T09:19:25;5.60;99.90
37002;DHT22;22913;51.910;8.374;2023-03-04T09:22:12;5.60;99.90
37002;DHT22;22913;51.910;8.374;2023-03-04T09:24:57;5.60;99.90
37002;DHT22;22913;51.910;8.374;2023-03-04T09:27:43;5.60;99.90
37002;DHT22;22913;51.910;8.374;2023-03-04T09:30:29;5.60;99.90
37002;DHT22;22913;51.910;8.374;2023-03-04T09:33:14;5.60;99.90
37002;DHT22;22913;51.910;8.374;2023-03-04T09:36:00;5.60;99.90
37002;DHT22;22913;51.910;8.374;2023-03-04T09:38:47;5.60;99.90
37002;DHT22;22913;51.910;8.374;2023-03-04T09:41:36;5.50;99.90
37002;DHT22;22913;51.910;8.374;2023-03-04T09:44:25;5.50;99.90
37002;DHT22;22913;51.910;8.374;2023-03-04T09:47:14;5.50;99.90
37002;DHT22;22913;51.910;8.374;2023-03-04T09:50:02;5.50;99.90
37002;DHT22;22913;51.910;8.374;2023-03-04T09:52:59;5.50;99.90
37002;DHT22;22913;51.910;8.374;2023-03-04T09:55:50;5.60;99.90
37002;DHT22;22913;51.910;8.374;2023-03-04T09:58:43;5.60;99.90
37002;DHT22;22913;51.910;8.374;2023-03-04T10:01:33;5.70;99.90
37002;DHT22;22913;51.910;8.374;2023-03-04T10:04:29;5.70;99.90
37002;DHT22;22913;51.910;8.374;2023-03-04T10:07:20;5.80;99.90
37002;DHT22;22913;51.910;8.374;2023-03-04T10:10:13;5.70;99.90
37002;DHT22;22913;51.910;8.374;2023-03-04T10:13:01;5.80;99.90
37002;DHT22;22913;51.910;8.374;2023-03-04T10:15:49;5.80;99.90
37002;DHT22;22913;51.910;8.374;2023-03-04T10:18:37;5.90;99.90
37002;DHT22;22913;51.910;8.374;2023-03-04T10:21:29;5.80;99.90
37002;DHT22;22913;51.910;8.374;2023-03-04T10:24:18;5.80;99.90
37002;DHT22;22913;51.910;8.374;2023-03-04T10:27:09;5.80;99.90
37002;DHT22;22913;51.910;8.374;2023-03-04T10:29:59;5.90;99.90
37002;DHT22;22913;51.910;8.374;2023-03-04T10:32:45;5.90;99.90
37002;DHT22;22913;51.910;8.374;2023-03-04T10:35:35;6.10;99.90
37002;DHT22;22913;51.910;8.374;2023-03-04T10:38:21;6.20;99.90
37002;DHT22;22913;51.910;8.374;2023-03-04T10:41:11;6.20;99.90
37002;DHT22;22913;51.910;8.374;2023-03-04T10:44:03;6.40;99.90
37002;DHT22;22913;51.910;8.374;2023-03-04T10:46:53;6.40;99.90
37002;DHT22;22913;51.910;8.374;2023-03-04T10:49:50;6.40;99.90
37002;DHT22;22913;51.910;8.374;2023-03-04T10:52:39;6.50;99.90
37002;DHT22;22913;51.910;8.374;2023-03-04T10:55:27;6.50;99.90
37002;DHT22;22913;51.910;8.374;2023-03-04T10:58:14;6.60;99.90
37002;DHT22;22913;51.910;8.374;2023-03-04T11:01:04;6.70;99.90
37002;DHT22;22913;51.910;8.374;2023-03-04T11:03:52;6.70;99.90
37002;DHT22;22913;51.910;8.374;2023-03-04T11:06:40;6.80;99.90
37002;DHT22;22913;51.910;8.374;2023-03-04T11:09:28;6.80;99.90
37002;DHT22;22913;51.910;8.374;2023-03-04T11:12:16;6.90;99.90
37002;DHT22;22913;51.910;8.374;2023-03-04T11:15:14;6.90;99.90
37002;DHT22;22913;51.910;8.374;2023-03-04T11:18:04;7.00;99.90
37002;DHT22;22913;51.910;8.374;2023-03-04T11:20:53;7.10;99.90
37002;DHT22;22913;51.910;8.374;2023-03-04T11:23:43;7.20;99.90
37002;DHT22;22913;51.910;8.374;2023-03-04T11:26:33;7.20;99.90
37002;DHT22;22913;51.910;8.374;2023-03-04T11:29:23;7.20;99.90
37002;DHT22;22913;51.910;8.374;2023-03-04T11:32:12;7.30;99.90
37002;DHT22;22913;51.910;8.374;2023-03-04T11:35:05;7.30;99.90
37002;DHT22;22913;51.910;8.374;2023-03-04T11:37:59;7.30;99.90
37002;DHT22;22913;51.910;8.374;2023-03-04T11:40:50;7.50;99.90
37002;DHT22;22913;51.910;8.374;2023-03-04T11:43:38;7.50;99.90
37002;DHT22;22913;51.910;8.374;2023-03-04T11:46:34;7.60;99.90
37002;DHT22;22913;51.910;8.374;2023-03-04T11:49:46;7.70;99.90
37002;DHT22;22913;51.910;8.374;2023-03-04T11:52:48;7.90;99.90
37002;DHT22;22913;51.910;8.374;2023-03-04T11:55:41;8.10;99.90
37002;DHT22;22913;51.910;8.374;2023-03-04T12:01:58;8.10;99.90
37002;DHT22;22913;51.910;8.374;2023-03-04T12:05:08;8.00;99.90
37002;DHT22;22913;51.910;8.374;2023-03-04T12:08:04;8.00;99.90
37002;DHT22;22913;51.910;8.374;2023-03-04T12:10:57;8.00;99.90
37002;DHT22;22913;51.910;8.374;2023-03-04T12:14:04;7.90;99.90
37002;DHT22;22913;51.910;8.374;2023-03-04T12:17:05;8.10;99.90
37002;DHT22;22913;51.910;8.374;2023-03-04T12:20:15;8.20;99.90
37002;DHT22;22913;51.910;8.374;2023-03-04T12:23:14;8.30;99.90
37002;DHT22;22913;51.910;8.374;2023-03-04T12:26:09;8.30;99.90
37002;DHT22;22913;51.910;8.374;2023-03-04T12:29:04;8.20;99.90
37002;DHT22;22913;51.910;8.374;2023-03-04T12:31:59;8.20;99.90
37002;DHT22;22913;51.910;8.374;2023-03-04T12:35:11;8.10;99.90
37002;DHT22;22913;51.910;8.374;2023-03-04T12:38:20;8.10;99.90
37002;DHT22;22913;51.910;8.374;2023-03-04T12:41:24;8.00;99.90
37002;DHT22;22913;51.910;8.374;2023-03-04T12:44:14;8.10;99.90
37002;DHT22;22913;51.910;8.374;2023-03-04T12:47:16;8.00;99.90
37002;DHT22;22913;51.910;8.374;2023-03-04T12:50:23;8.00;99.90
37002;DHT22;22913;51.910;8.374;2023-03-04T12:53:18;7.90;99.90
37002;DHT22;22913;51.910;8.374;2023-03-04T12:56:05;7.90;99.90
37002;DHT22;22913;51.910;8.374;2023-03-04T12:58:52;7.90;99.90
37002;DHT22;22913;51.910;8.374;2023-03-04T13:01:41;7.90;99.90
37002;DHT22;22913;51.910;8.374;2023-03-04T13:04:35;7.90;99.90
37002;DHT22;22913;51.910;8.374;2023-03-04T13:07:38;7.90;99.90
37002;DHT22;22913;51.910;8.374;2023-03-04T13:10:26;8.00;99.90
37002;DHT22;22913;51.910;8.374;2023-03-04T13:13:38;8.00;99.90
37002;DHT22;22913;51.910;8.374;2023-03-04T13:16:30;8.00;99.90
37002;DHT22;22913;51.910;8.374;2023-03-04T13:19:46;8.10;99.90
37002;DHT22;22913;51.910;8.374;2023-03-04T13:22:41;8.10;99.90
37002;DHT22;22913;51.910;8.374;2023-03-04T13:25:38;8.30;99.90
37002;DHT22;22913;51.910;8.374;2023-03-04T13:28:26;8.30;99.90
37002;DHT22;22913;51.910;8.374;2023-03-04T13:31:18;8.20;99.90
37002;DHT22;22913;51.910;8.374;2023-03-04T13:34:45;8.30;99.90
37002;DHT22;22913;51.910;8.374;2023-03-04T13:37:33;8.50;99.90
37002;DHT22;22913;51.910;8.374;2023-03-04T13:40:37;8.50;99.90
37002;DHT22;22913;51.910;8.374;2023-03-04T13:43:27;8.70;99.90
37002;DHT22;22913;51.910;8.374;2023-03-04T13:46:42;9.10;99.90
37002;DHT22;22913;51.910;8.374;2023-03-04T13:49:29;9.70;99.90
37002;DHT22;22913;51.910;8.374;2023-03-04T13:52:36;10.10;99.90
37002;DHT22;22913;51.910;8.374;2023-03-04T13:55:34;10.60;99.90
37002;DHT22;22913;51.910;8.374;2023-03-04T13:58:21;11.30;99.90
37002;DHT22;22913;51.910;8.374;2023-03-04T14:01:23;12.00;99.90
37002;DHT22;22913;51.910;8.374;2023-03-04T14:04:12;12.20;99.90
37002;DHT22;22913;51.910;8.374;2023-03-04T14:07:15;12.10;99.90
37002;DHT22;22913;51.910;8.374;2023-03-04T14:10:03;12.20;99.90
37002;DHT22;22913;51.910;8.374;2023-03-04T14:12:51;11.60;99.90
37002;DHT22;22913;51.910;8.374;2023-03-04T14:15:38;11.30;99.90
37002;DHT22;22913;51.910;8.374;2023-03-04T14:18:24;10.80;99.90
37002;DHT22;22913;51.910;8.374;2023-03-04T14:21:13;10.50;99.90
37002;DHT22;22913;51.910;8.374;2023-03-04T14:24:06;10.00;99.90
37002;DHT22;22913;51.910;8.374;2023-03-04T14:27:05;9.80;99.90
37002;DHT22;22913;51.910;8.374;2023-03-04T14:29:55;9.70;99.90
37002;DHT22;22913;51.910;8.374;2023-03-04T14:32:42;9.50;99.90
37002;DHT22;22913;51.910;8.374;2023-03-04T14:35:28;9.20;99.90
37002;DHT22;22913;51.910;8.374;2023-03-04T14:38:19;9.20;99.90
37002;DHT22;22913;51.910;8.374;2023-03-04T14:41:10;9.20;99.90
37002;DHT22;22913;51.910;8.374;2023-03-04T14:44:03;9.20;99.90
37002;DHT22;22913;51.910;8.374;2023-03-04T14:46:54;8.90;99.90
37002;DHT22;22913;51.910;8.374;2023-03-04T14:49:40;8.70;99.90
37002;DHT22;22913;51.910;8.374;2023-03-04T14:52:29;8.50;99.90
37002;DHT22;22913;51.910;8.374;2023-03-04T14:55:22;8.40;99.90
37002;DHT22;22913;51.910;8.374;2023-03-04T14:58:19;8.30;99.90
37002;DHT22;22913;51.910;8.374;2023-03-04T15:01:14;8.30;99.90
37002;DHT22;22913;51.910;8.374;2023-03-04T15:04:01;8.10;99.90
37002;DHT22;22913;51.910;8.374;2023-03-04T15:06:50;8.20;99.90
37002;DHT22;22913;51.910;8.374;2023-03-04T15:09:36;8.10;99.90
37002;DHT22;22913;51.910;8.374;2023-03-04T15:12:26;8.10;99.90
37002;DHT22;22913;51.910;8.374;2023-03-04T15:15:41;8.10;99.90
37002;DHT22;22913;51.910;8.374;2023-03-04T15:18:28;8.20;99.90
37002;DHT22;22913;51.910;8.374;2023-03-04T15:21:35;8.20;99.90
37002;DHT22;22913;51.910;8.374;2023-03-04T15:24:21;8.20;99.90
37002;DHT22;22913;51.910;8.374;2023-03-04T15:27:09;8.10;99.90
37002;DHT22;22913;51.910;8.374;2023-03-04T15:29:57;8.10;99.90
37002;DHT22;22913;51.910;8.374;2023-03-04T15:32:46;8.00;99.90
37002;DHT22;22913;51.910;8.374;2023-03-04T15:35:32;7.90;99.90
37002;DHT22;22913;51.910;8.374;2023-03-04T15:38:17;7.90;99.90
37002;DHT22;22913;51.910;8.374;2023-03-04T15:41:03;7.90;99.90
37002;DHT22;22913;51.910;8.374;2023-03-04T15:43:49;7.90;99.90
37002;DHT22;22913;51.910;8.374;2023-03-04T15:46:35;7.90;99.90
37002;DHT22;22913;51.910;8.374;2023-03-04T15:49:22;7.90;99.90
37002;DHT22;22913;51.910;8.374;2023-03-04T15:52:14;7.90;99.90
37002;DHT22;22913;51.910;8.374;2023-03-04T15:55:01;7.90;99.90
37002;DHT22;22913;51.910;8.374;2023-03-04T15:57:49;7.90;99.90
37002;DHT22;22913;51.910;8.374;2023-03-04T16:00:36;7.80;99.90
37002;DHT22;22913;51.910;8.374;2023-03-04T16:03:22;7.80;99.90
37002;DHT22;22913;51.910;8.374;2023-03-04T16:06:10;7.70;99.90
37002;DHT22;22913;51.910;8.374;2023-03-04T16:08:56;7.70;99.90
37002;DHT22;22913;51.910;8.374;2023-03-04T16:11:44;7.70;99.90
37002;DHT22;22913;51.910;8.374;2023-03-04T16:14:30;7.60;99.90
37002;DHT22;22913;51.910;8.374;2023-03-04T16:17:16;7.60;99.90
37002;DHT22;22913;51.910;8.374;2023-03-04T16:20:01;7.60;99.90
37002;DHT22;22913;51.910;8.374;2023-03-04T16:22:51;7.60;99.90
37002;DHT22;22913;51.910;8.374;2023-03-04T16:25:38;7.50;99.90
37002;DHT22;22913;51.910;8.374;2023-03-04T16:28:24;7.40;99.90
37002;DHT22;22913;51.910;8.374;2023-03-04T16:31:12;7.50;99.90
37002;DHT22;22913;51.910;8.374;2023-03-04T16:33:58;7.30;99.90
37002;DHT22;22913;51.910;8.374;2023-03-04T16:36:43;7.10;99.90
37002;DHT22;22913;51.910;8.374;2023-03-04T16:39:30;7.00;99.90
37002;DHT22;22913;51.910;8.374;2023-03-04T16:42:17;6.90;99.90
37002;DHT22;22913;51.910;8.374;2023-03-04T16:45:06;6.90;99.90
37002;DHT22;22913;51.910;8.374;2023-03-04T16:47:52;6.80;99.90
37002;DHT22;22913;51.910;8.374;2023-03-04T16:50:38;6.70;99.90
37002;DHT22;22913;51.910;8.374;2023-03-04T16:53:30;6.70;99.90
37002;DHT22;22913;51.910;8.374;2023-03-04T16:56:19;6.60;99.90
37002;DHT22;22913;51.910;8.374;2023-03-04T16:59:04;6.60;99.90
37002;DHT22;22913;51.910;8.374;2023-03-04T17:01:52;6.60;99.90
37002;DHT22;22913;51.910;8.374;2023-03-04T17:04:37;6.50;99.90
37002;DHT22;22913;51.910;8.374;2023-03-04T17:07:23;6.50;99.90
37002;DHT22;22913;51.910;8.374;2023-03-04T17:10:10;6.50;99.90
37002;DHT22;22913;51.910;8.374;2023-03-04T17:12:57;6.50;99.90
37002;DHT22;22913;51.910;8.374;2023-03-04T17:15:42;6.40;99.90
37002;DHT22;22913;51.910;8.374;2023-03-04T17:18:29;6.40;99.90
37002;DHT22;22913;51.910;8.374;2023-03-04T17:21:17;6.50;99.90
37002;DHT22;22913;51.910;8.374;2023-03-04T17:24:03;6.50;99.90
37002;DHT22;22913;51.910;8.374;2023-03-04T17:26:51;6.50;99.90
37002;DHT22;22913;51.910;8.374;2023-03-04T17:29:38;6.50;99.90
37002;DHT22;22913;51.910;8.374;2023-03-04T17:32:24;6.40;99.90
37002;DHT22;22913;51.910;8.374;2023-03-04T17:35:10;6.40;99.90
37002;DHT22;22913;51.910;8.374;2023-03-04T17:37:56;6.40;99.90
37002;DHT22;22913;51.910;8.374;2023-03-04T17:40:42;6.50;99.90
37002;DHT22;22913;51.910;8.374;2023-03-04T17:43:27;6.50;99.90
37002;DHT22;22913;51.910;8.374;2023-03-04T17:46:16;6.50;99.90
37002;DHT22;22913;51.910;8.374;2023-03-04T17:49:02;6.40;99.90
37002;DHT22;22913;51.910;8.374;2023-03-04T17:51:47;6.30;99.90
37002;DHT22;22913;51.910;8.374;2023-03-04T17:54:33;6.30;99.90
37002;DHT22;22913;51.910;8.374;2023-03-04T17:57:19;6.30;99.90
37002;DHT22;22913;51.910;8.374;2023-03-04T18:00:06;6.30;99.90
37002;DHT22;22913;51.910;8.374;2023-03-04T18:02:53;6.10;99.90
37002;DHT22;22913;51.910;8.374;2023-03-04T18:05:39;6.00;99.90